Time;durP1;ratioP1;P1;durP2;ratioP2;P2;SDS_P1;SDS_P2;PMS_P1;PMS_P2;Temp;Humidity;BMP_temperature;BMP_pressure;BME280_temperature;BME280_humidity;BME280_pressure;Samples;Min_cycle;Max_cycle;Signal;HPM_P1;HPM_P2
2023/02/28 00:01:45;;;;;;;3.47;2.53;;;1.10;99.90;;;-141.84;62.32;18978.63;5069815;28;20212;-63
2023/02/28 00:04:13;;;;;;;4.00;3.20;;;1.10;99.90;;;-141.84;62.19;18954.25;5070480;28;20205;-64
2023/02/28 00:06:42;;;;;;;4.87;3.00;;;1.10;99.90;;;-141.84;62.18;18984.72;5069738;28;20228;-63
2023/02/28 00:09:10;;;;;;;3.27;2.47;;;1.10;99.90;;;-141.84;62.49;18996.91;5069975;28;20232;-63
2023/02/28 00:11:38;;;;;;;2.90;2.53;;;1.10;99.90;;;-141.84;62.39;18984.72;5069965;28;20232;-64
2023/02/28 00:14:06;;;;;;;4.97;2.97;;;1.10;99.90;;;-141.84;62.46;18978.63;5070015;28;20343;-63
2023/02/28 00:16:36;;;;;;;3.53;3.23;;;1.10;99.90;;;-141.84;62.16;18984.72;5068515;28;20230;-64
2023/02/28 00:19:04;;;;;;;3.53;2.93;;;1.10;99.90;;;-141.84;62.19;18986.75;5056712;28;20233;-63
2023/02/28 00:21:32;;;;;;;3.60;3.10;;;1.10;99.90;;;-141.84;62.34;18976.59;5049759;28;20224;-63
2023/02/28 00:24:00;;;;;;;2.90;2.60;;;1.10;99.90;;;-141.84;62.60;18972.53;5050213;28;20309;-64
2023/02/28 00:26:29;;;;;;;4.77;3.10;;;1.10;99.90;;;-141.84;62.77;18978.63;5049747;28;20229;-63
2023/02/28 00:28:57;;;;;;;4.23;3.27;;;1.10;99.90;;;-141.84;63.09;18972.53;5049801;28;20208;-64
2023/02/28 00:31:25;;;;;;;4.73;3.30;;;1.00;99.90;;;-141.84;62.87;18990.81;5050271;28;20201;-66
2023/02/28 00:33:55;;;;;;;4.13;3.20;;;1.10;99.90;;;-141.84;62.84;18964.41;5068630;28;20227;-64
2023/02/28 00:36:23;;;;;;;3.80;2.70;;;1.00;99.90;;;-141.84;62.35;19023.34;5072650;28;20228;-63
2023/02/28 00:38:51;;;;;;;4.07;3.23;;;1.10;99.90;;;-141.84;62.86;18990.81;5073105;28;20243;-62
2023/02/28 00:41:20;;;;;;;3.20;2.90;;;1.10;99.90;;;-141.84;62.78;18970.50;5073290;28;20224;-63
2023/02/28 00:43:48;;;;;;;3.67;2.90;;;1.10;99.90;;;-141.84;63.13;18976.59;5073240;28;20319;-63
2023/02/28 00:46:16;;;;;;;3.43;2.57;;;1.10;99.90;;;-141.84;62.70;18996.91;5073393;28;20196;-64
2023/02/28 00:48:45;;;;;;;4.30;3.03;;;1.10;99.90;;;-141.84;62.65;18978.63;5073164;28;20225;-65
2023/02/28 00:51:14;;;;;;;4.00;2.77;;;1.00;99.90;;;-141.84;62.60;18972.53;5073473;28;20225;-63
2023/02/28 00:53:42;;;;;;;3.80;3.00;;;1.10;99.90;;;-141.84;61.62;19005.03;5073608;28;20228;-63
2023/02/28 00:56:11;;;;;;;3.87;3.07;;;1.20;99.90;;;-141.84;62.60;18980.66;5073654;28;20224;-62
2023/02/28 00:58:39;;;;;;;3.03;2.60;;;1.20;99.90;;;-141.84;62.93;18980.66;5073845;28;20209;-64
2023/02/28 01:01:07;;;;;;;5.10;3.27;;;1.20;99.90;;;-141.84;62.67;18982.69;5073020;28;20228;-63
2023/02/28 01:03:36;;;;;;;3.53;2.87;;;1.20;99.90;;;-141.84;62.94;19003.00;5072716;28;20615;-63
2023/02/28 01:06:05;;;;;;;3.90;2.70;;;1.10;99.90;;;-141.84;62.61;18978.63;5072779;28;20712;-63
2023/02/28 01:08:35;;;;;;;3.63;3.07;;;1.20;99.90;;;-141.84;62.51;18990.81;5072662;28;20575;-63
2023/02/28 01:11:10;;;;;;;4.07;2.97;;;1.20;99.90;;;-141.84;62.77;18948.16;5072212;28;20224;-63
2023/02/28 01:13:38;;;;;;;5.23;2.83;;;1.20;99.90;;;-141.84;62.67;19013.16;5073131;28;20204;-63
2023/02/28 01:16:08;;;;;;;3.70;3.00;;;1.10;99.90;;;-141.84;63.35;18998.94;5072508;28;20247;-62
2023/02/28 01:18:37;;;;;;;3.23;2.70;;;1.00;99.90;;;-141.84;63.50;18966.44;5072401;28;20228;-64
2023/02/28 01:21:06;;;;;;;5.33;3.40;;;1.00;99.90;;;-141.84;63.82;18988.78;5072689;28;20236;-63
2023/02/28 01:23:36;;;;;;;4.13;3.07;;;1.00;99.90;;;-141.84;63.51;18954.25;5072426;28;20224;-63
2023/02/28 01:26:06;;;;;;;4.40;2.90;;;1.10;99.90;;;-141.84;63.60;19013.16;5072587;28;20304;-64
2023/02/28 01:28:35;;;;;;;3.60;3.07;;;0.90;99.90;;;-141.84;63.71;18978.63;5072637;28;20182;-64
2023/02/28 01:31:04;;;;;;;2.60;2.40;;;1.10;99.90;;;-141.84;63.83;18988.78;5071879;28;20224;-63
2023/02/28 01:33:33;;;;;;;3.60;2.87;;;1.00;99.90;;;-141.84;63.99;18948.16;5072095;28;20657;-65
2023/02/28 01:36:02;;;;;;;3.70;2.93;;;1.00;99.90;;;-141.84;64.33;18952.22;5072212;28;20228;-63
2023/02/28 01:38:31;;;;;;;4.17;3.30;;;0.90;99.90;;;-141.84;64.17;18954.25;5071690;28;20220;-63
2023/02/28 01:41:02;;;;;;;3.50;3.20;;;0.90;99.90;;;-141.84;64.33;18968.47;5072028;28;20200;-63
2023/02/28 01:43:52;;;;;;;3.80;2.90;;;0.90;99.90;;;-141.84;64.63;18970.50;5072655;28;20227;-62
2023/02/28 01:46:21;;;;;;;3.17;2.80;;;0.90;99.90;;;-141.84;63.93;18984.72;5051278;28;20217;-63
2023/02/28 01:48:57;;;;;;;5.33;2.80;;;0.90;99.90;;;-141.84;63.61;18982.69;5051939;28;20538;-62
2023/02/28 01:51:32;;;;;;;3.90;2.80;;;0.90;99.90;;;-141.84;63.23;19015.19;5051576;28;20232;-66
2023/02/28 01:54:06;;;;;;;3.93;2.80;;;1.00;99.90;;;-141.84;63.61;18978.63;5051719;28;20307;-65
2023/02/28 01:56:37;;;;;;;4.00;3.03;;;1.00;99.90;;;-141.84;63.40;19025.38;5051793;28;20229;-63
2023/02/28 01:59:06;;;;;;;4.07;3.23;;;1.00;99.90;;;-141.84;64.01;18958.31;5051529;28;20233;-63
2023/02/28 02:01:34;;;;;;;5.10;3.20;;;1.10;99.90;;;-141.84;64.48;18935.97;5052242;28;20193;-63
2023/02/28 02:04:04;;;;;;;4.87;2.67;;;1.00;99.90;;;-141.84;64.51;18984.72;5051544;28;20229;-63
2023/02/28 02:06:41;;;;;;;3.90;3.20;;;0.90;99.90;;;-141.84;63.61;18958.31;5051531;28;20588;-63
2023/02/28 02:09:09;;;;;;;3.13;2.83;;;0.90;99.90;;;-141.84;64.08;18998.94;5051385;28;20227;-64
2023/02/28 02:11:43;;;;;;;4.47;2.80;;;0.90;99.90;;;-141.84;64.30;18980.66;5051584;28;20234;-63
2023/02/28 02:14:44;;;;;;;4.23;3.07;;;0.90;99.90;;;-141.84;64.27;18956.28;5051749;28;20652;-63
2023/02/28 02:17:27;;;;;;;3.37;2.77;;;0.90;99.90;;;-141.84;63.96;18990.81;5051479;28;20232;-63
2023/02/28 02:20:58;;;;;;;4.60;3.23;;;0.90;99.90;;;-141.84;64.48;18956.28;5052635;28;20244;-63
2023/02/28 02:24:10;;;;;;;4.00;2.67;;;0.90;99.90;;;-141.84;65.18;18964.41;5071465;28;20594;-63
2023/02/28 02:27:04;;;;;;;4.00;2.97;;;0.80;99.90;;;-141.84;65.71;18984.72;5071648;28;20224;-64
2023/02/28 02:29:55;;;;;;;4.37;2.87;;;0.80;99.90;;;-141.84;65.70;18954.25;5051338;28;20595;-63
2023/02/28 02:33:05;;;;;;;5.10;3.27;;;0.70;99.90;;;-141.84;65.77;18935.97;5057773;28;20220;-63
2023/02/28 02:35:43;;;;;;;3.37;2.90;;;0.70;99.90;;;-141.84;65.13;18942.06;5068768;28;20228;-63
2023/02/28 02:38:25;;;;;;;4.80;3.00;;;0.80;99.90;;;-141.84;65.59;18931.91;5071042;28;20761;-63
2023/02/28 02:41:07;;;;;;;3.23;2.70;;;0.70;99.90;;;-141.84;65.65;18946.13;5071005;28;20185;-63
2023/02/28 02:43:42;;;;;;;9.30;3.23;;;0.70;99.90;;;-141.84;65.26;18935.97;5071713;28;20183;-64
2023/02/28 02:46:17;;;;;;;3.83;3.03;;;0.70;99.90;;;-141.84;65.58;18958.31;5071023;28;20225;-63
2023/02/28 02:48:48;;;;;;;3.50;2.90;;;0.70;99.90;;;-141.84;66.07;18946.13;5070736;28;20234;-64
2023/02/28 02:51:23;;;;;;;4.03;3.07;;;0.60;99.90;;;-141.84;66.19;18952.22;5070654;28;20224;-63
2023/02/28 02:53:58;;;;;;;4.07;3.10;;;0.60;99.90;;;-141.84;66.12;18907.50;5070776;28;20233;-63
2023/02/28 02:56:32;;;;;;;4.90;3.10;;;0.60;99.90;;;-141.84;66.26;18899.38;5070865;28;20223;-63
2023/02/28 02:59:07;;;;;;;3.23;2.90;;;0.50;99.90;;;-141.84;66.31;18960.34;5069850;28;20227;-63
2023/02/28 03:01:39;;;;;;;4.57;3.30;;;0.50;99.90;;;-141.84;65.83;18935.97;5071336;28;20187;-63
2023/02/28 03:04:11;;;;;;;4.40;3.00;;;0.50;99.90;;;-141.84;65.91;18952.22;5070217;28;20227;-62
2023/02/28 03:06:42;;;;;;;4.60;3.10;;;0.50;99.90;;;-141.84;66.30;18940.03;5070434;28;20244;-65
2023/02/28 03:09:10;;;;;;;3.27;2.80;;;0.40;99.90;;;-141.84;66.88;18919.69;5070702;28;20228;-63
2023/02/28 03:11:41;;;;;;;5.87;2.93;;;0.30;99.90;;;-141.84;66.95;18923.78;5070195;28;20245;-62
2023/02/28 03:14:31;;;;;;;5.27;2.93;;;0.30;99.90;;;-141.84;66.92;18923.78;5070362;28;20691;-64
2023/02/28 03:17:31;;;;;;;4.50;2.83;;;0.30;99.90;;;-141.84;67.56;18907.50;5070454;28;20543;-63
2023/02/28 03:20:15;;;;;;;4.23;3.27;;;0.10;99.90;;;-141.84;67.80;18915.63;5070168;28;20237;-63
2023/02/28 03:23:02;;;;;;;4.43;3.03;;;0.10;99.90;;;-141.84;68.75;18911.56;5071001;28;20187;-63
2023/02/28 03:25:40;;;;;;;5.30;3.40;;;-0.10;99.90;;;-141.84;68.66;18895.31;5070444;28;20233;-63
2023/02/28 03:28:19;;;;;;;4.80;3.27;;;-0.10;99.90;;;-141.84;68.45;18891.25;5070382;28;20231;-63
2023/02/28 03:30:55;;;;;;;3.90;3.30;;;-0.10;99.90;;;-141.84;68.44;18905.47;5070114;28;20236;-63
2023/02/28 03:33:31;;;;;;;4.40;3.37;;;-0.10;99.90;;;-141.84;68.66;18923.78;5070341;28;20824;-56
2023/02/28 03:36:08;;;;;;;4.33;3.47;;;-0.10;99.90;;;-141.84;68.67;18893.28;5034872;28;20230;-59
2023/02/28 03:38:45;;;;;;;5.73;3.47;;;-0.10;99.90;;;-141.84;68.77;18879.06;5070421;28;20223;-57
2023/02/28 03:41:19;;;;;;;3.67;3.23;;;-0.20;99.90;;;-141.84;68.54;18891.25;5070354;28;20223;-59
2023/02/28 03:43:56;;;;;;;5.57;3.27;;;-0.10;99.90;;;-141.84;68.54;18899.38;5070229;28;20187;-57
2023/02/28 03:46:32;;;;;;;4.93;3.73;;;-0.20;99.90;;;-141.84;69.25;18885.16;5070505;28;20193;-60
2023/02/28 03:49:12;;;;;;;5.37;3.47;;;-0.20;99.90;;;-141.84;68.72;18907.50;5070124;28;20235;-59
2023/02/28 03:51:44;;;;;;;4.60;3.30;;;-0.20;99.90;;;-141.84;69.22;18925.81;5069906;28;20261;-56
2023/02/28 03:54:20;;;;;;;4.13;3.47;;;-0.20;99.90;;;-141.84;69.50;18907.50;5070259;28;20228;-58
2023/02/28 03:56:56;;;;;;;4.73;3.33;;;-0.30;99.90;;;-141.84;69.37;18870.94;5070060;28;20231;-56
2023/02/28 03:59:31;;;;;;;4.60;3.37;;;-0.30;99.90;;;-141.84;69.87;18907.50;5069911;28;20228;-58
2023/02/28 04:01:59;;;;;;;5.57;3.50;;;-0.30;99.90;;;-141.84;69.99;18897.34;5069901;28;20200;-55
2023/02/28 04:04:28;;;;;;;5.83;3.47;;;-0.30;99.90;;;-141.84;69.02;18899.38;5070618;28;20736;-56
2023/02/28 04:07:04;;;;;;;5.27;4.17;;;-0.20;99.90;;;-141.84;69.08;18921.75;5070256;28;20232;-57
2023/02/28 04:09:33;;;;;;;4.73;3.57;;;-0.20;99.90;;;-141.84;68.49;18911.56;5070172;28;20222;-56
2023/02/28 04:12:02;;;;;;;4.23;3.37;;;-0.20;99.90;;;-141.84;68.38;18889.22;5073589;28;20717;-57
2023/02/28 04:14:30;;;;;;;4.53;3.40;;;-0.10;99.90;;;-141.84;67.35;18948.16;5074136;28;20235;-58
2023/02/28 04:16:58;;;;;;;4.07;3.40;;;0.00;99.90;;;-141.84;67.57;18870.94;5073656;28;20207;-57
2023/02/28 04:19:26;;;;;;;4.57;3.40;;;0.00;99.90;;;-141.84;67.82;18905.47;5073960;28;20235;-58
2023/02/28 04:21:55;;;;;;;3.87;3.47;;;0.00;99.90;;;-141.84;67.64;18881.09;5073657;28;20223;-57
2023/02/28 04:24:28;;;;;;;4.37;3.33;;;0.00;99.90;;;-141.84;67.63;18889.22;5073988;28;20231;-55
2023/02/28 04:26:59;;;;;;;5.53;4.13;;;0.10;99.90;;;-141.84;67.46;18897.34;5073573;28;20713;-58
2023/02/28 04:29:29;;;;;;;4.47;3.80;;;0.10;99.90;;;-141.84;67.09;18901.41;5073715;28;20216;-57
2023/02/28 04:31:59;;;;;;;7.53;3.40;;;0.10;99.90;;;-141.84;67.20;18911.56;5073066;28;20203;-56
2023/02/28 04:34:30;;;;;;;5.10;3.83;;;0.10;99.90;;;-141.84;66.66;18919.69;5074170;28;20277;-58
2023/02/28 04:37:00;;;;;;;4.00;3.23;;;0.10;99.90;;;-141.84;66.70;18919.69;5073246;28;20237;-56
2023/02/28 04:39:44;;;;;;;5.97;3.27;;;0.20;99.90;;;-141.84;66.38;18921.75;5073487;28;20231;-57
2023/02/28 04:42:14;;;;;;;5.33;3.70;;;0.20;99.90;;;-141.84;66.13;18879.06;5073177;28;20697;-59
2023/02/28 04:44:42;;;;;;;4.33;3.23;;;0.20;99.90;;;-141.84;66.72;18931.91;5073422;28;20229;-57
2023/02/28 04:47:10;;;;;;;4.40;3.10;;;0.20;99.90;;;-141.84;67.03;18935.97;5072775;28;20224;-58
2023/02/28 04:49:39;;;;;;;5.57;3.43;;;0.10;99.90;;;-141.84;67.03;18911.56;5073602;28;20690;-57
2023/02/28 04:52:09;;;;;;;6.13;3.60;;;0.10;99.90;;;-141.84;66.35;18864.84;5072963;28;20238;-58
2023/02/28 04:54:38;;;;;;;5.07;3.63;;;0.20;99.90;;;-141.84;66.44;18919.69;5073139;28;20245;-59
2023/02/28 04:57:07;;;;;;;4.47;3.40;;;0.10;99.90;;;-141.84;66.89;18891.25;5073930;28;20579;-59
2023/02/28 04:59:36;;;;;;;4.90;3.40;;;0.10;99.90;;;-141.84;67.57;18909.53;5093369;28;20218;-58
2023/02/28 05:02:06;;;;;;;5.60;4.23;;;-0.10;99.90;;;-141.84;67.32;18875.00;5093371;28;20200;-58
2023/02/28 05:04:35;;;;;;;6.83;3.77;;;-0.10;99.90;;;-141.84;67.00;18901.41;5093978;28;20191;-58
2023/02/28 05:07:04;;;;;;;4.80;3.40;;;-0.10;99.90;;;-141.84;66.76;18921.75;5093396;28;20232;-57
2023/02/28 05:09:32;;;;;;;5.07;3.90;;;-0.10;99.90;;;-141.84;66.38;18931.91;5081480;28;20233;-60
2023/02/28 05:12:01;;;;;;;5.30;4.07;;;0.20;99.90;;;-141.84;65.63;18944.09;5072668;28;20233;-57
2023/02/28 05:14:29;;;;;;;4.77;4.00;;;0.10;99.90;;;-141.84;65.81;18907.50;5072580;28;20226;-58
2023/02/28 05:16:58;;;;;;;5.77;4.43;;;0.10;99.90;;;-141.84;65.76;18905.47;5072448;28;20204;-59
2023/02/28 05:19:26;;;;;;;7.47;4.07;;;0.10;99.90;;;-141.84;66.00;18885.16;5072971;28;20242;-58
2023/02/28 05:21:56;;;;;;;6.20;4.13;;;0.00;99.90;;;-141.84;66.18;18923.78;5071460;28;20602;-59
2023/02/28 05:24:24;;;;;;;7.23;4.40;;;0.00;99.90;;;-141.84;66.41;18879.06;5072426;28;20222;-58
2023/02/28 05:26:54;;;;;;;6.03;4.17;;;0.00;99.90;;;-141.84;66.57;18899.38;5072247;28;20236;-56
2023/02/28 05:29:23;;;;;;;5.77;4.60;;;-0.10;99.90;;;-141.84;66.89;18887.19;5072413;28;20232;-60
2023/02/28 05:31:51;;;;;;;5.60;3.57;;;-0.10;99.90;;;-141.84;66.44;18913.59;5071915;28;20220;-57
2023/02/28 05:34:21;;;;;;;5.13;4.07;;;-0.10;99.90;;;-141.84;67.08;18911.56;5073138;28;20200;-57
2023/02/28 05:36:49;;;;;;;8.10;4.73;;;-0.10;99.90;;;-141.84;67.14;18881.09;5072311;28;20734;-56
2023/02/28 05:39:18;;;;;;;7.37;4.53;;;-0.20;99.90;;;-141.84;67.54;18891.25;5072356;28;20227;-56
2023/02/28 05:41:46;;;;;;;5.50;4.47;;;-0.20;99.90;;;-141.84;67.78;18927.84;5072221;28;20246;-56
2023/02/28 05:44:14;;;;;;;5.87;4.40;;;-0.30;99.90;;;-141.84;67.81;18881.09;5072244;28;20220;-55
2023/02/28 05:46:42;;;;;;;5.00;4.20;;;-0.40;99.90;;;-141.84;67.86;18891.25;5033084;28;20203;-58
2023/02/28 05:49:11;;;;;;;5.93;4.47;;;-0.40;99.90;;;-141.84;68.29;18903.44;5052092;28;20563;-58
2023/02/28 05:51:40;;;;;;;6.23;4.60;;;-0.40;99.90;;;-141.84;68.31;18907.50;5056866;28;20212;-58
2023/02/28 05:54:09;;;;;;;6.70;4.50;;;-0.50;99.90;;;-141.84;68.12;18891.25;5071778;28;20238;-56
2023/02/28 05:56:40;;;;;;;6.33;4.70;;;-0.50;99.90;;;-141.84;68.03;18891.25;5071737;28;20233;-57
2023/02/28 05:59:08;;;;;;;5.70;4.40;;;-0.40;99.90;;;-141.84;67.97;18889.22;5089799;28;20271;-57
2023/02/28 06:01:39;;;;;;;6.33;4.10;;;-0.40;99.90;;;-141.84;68.47;18879.06;5092216;28;20562;-57
2023/02/28 06:04:11;;;;;;;5.77;4.73;;;-0.50;99.90;;;-141.84;68.45;18870.94;5091457;28;20219;-57
2023/02/28 06:06:58;;;;;;;5.43;4.10;;;-0.50;99.90;;;-141.84;67.45;18927.84;5063795;28;20227;-56
2023/02/28 06:09:26;;;;;;;5.97;4.47;;;-0.40;99.90;;;-141.84;67.17;18889.22;5071688;28;20238;-56
2023/02/28 06:11:54;;;;;;;7.13;4.67;;;-0.40;99.90;;;-141.84;67.29;18895.31;5071630;28;20228;-57
2023/02/28 06:14:22;;;;;;;6.00;4.63;;;-0.40;99.90;;;-141.84;67.68;18903.44;5071066;28;20222;-56
2023/02/28 06:16:50;;;;;;;6.77;4.50;;;-0.40;99.90;;;-141.84;67.68;18866.88;5071482;28;20212;-57
2023/02/28 06:19:19;;;;;;;6.10;4.53;;;-0.40;99.90;;;-141.84;67.90;18899.38;5071723;28;20334;-58
2023/02/28 06:21:53;;;;;;;6.53;4.30;;;-0.50;99.90;;;-141.84;67.75;18872.97;5071658;28;20228;-59
2023/02/28 06:24:24;;;;;;;7.43;4.60;;;-0.40;99.90;;;-141.84;66.70;18895.31;5071064;28;20226;-59
2023/02/28 06:26:52;;;;;;;6.87;4.60;;;-0.40;99.90;;;-141.84;67.28;18909.53;5070961;28;20236;-59
2023/02/28 06:29:21;;;;;;;5.80;4.30;;;-0.40;99.90;;;-141.84;67.82;18872.97;5071228;28;20268;-56
2023/02/28 06:31:49;;;;;;;7.33;4.50;;;-0.40;99.90;;;-141.84;68.43;18883.13;5071112;28;20718;-58
2023/02/28 06:34:18;;;;;;;5.33;4.57;;;-0.40;99.90;;;-141.84;67.00;18911.56;5071437;28;20278;-57
2023/02/28 06:36:46;;;;;;;6.13;4.23;;;-0.20;99.90;;;-141.84;67.21;18881.09;5071195;28;20224;-58
2023/02/28 06:39:14;;;;;;;5.57;4.67;;;-0.30;99.90;;;-141.84;67.29;18905.47;5070984;28;20230;-59
2023/02/28 06:41:45;;;;;;;5.70;4.63;;;-0.20;99.90;;;-141.84;67.04;18897.34;5071048;28;20235;-58
2023/02/28 06:44:24;;;;;;;5.70;4.50;;;-0.20;99.90;;;-141.84;66.56;18903.44;5071131;28;20228;-59
2023/02/28 06:46:52;;;;;;;5.80;4.60;;;-0.10;99.90;;;-141.84;66.89;18901.41;5070538;28;20197;-57
2023/02/28 06:49:20;;;;;;;8.67;5.40;;;-0.10;99.90;;;-141.84;67.02;18877.03;5071274;28;20206;-55
2023/02/28 06:51:49;;;;;;;7.63;4.50;;;0.00;99.90;;;-141.84;66.89;18913.59;5070749;28;20674;-56
2023/02/28 06:54:17;;;;;;;6.23;4.67;;;0.00;99.90;;;-141.84;66.55;18933.94;5070575;28;20243;-58
2023/02/28 06:56:47;;;;;;;8.80;4.97;;;0.10;99.90;;;-141.84;66.17;18927.84;5070760;28;20225;-57
2023/02/28 06:59:15;;;;;;;5.80;4.87;;;0.10;99.90;;;-141.84;65.85;18913.59;5089808;28;20235;-56
2023/02/28 07:01:44;;;;;;;5.73;4.43;;;0.10;99.90;;;-141.84;64.69;18948.16;5091899;28;20214;-58
2023/02/28 07:04:12;;;;;;;7.50;4.90;;;0.20;99.90;;;-141.84;64.90;18909.53;5071046;28;20687;-57
2023/02/28 07:06:41;;;;;;;6.00;5.00;;;0.30;99.90;;;-141.84;64.48;18956.28;5070364;28;20231;-56
2023/02/28 07:09:10;;;;;;;6.03;4.77;;;0.40;99.90;;;-141.84;64.77;18948.16;5061633;28;20225;-58
2023/02/28 07:11:38;;;;;;;5.77;4.60;;;0.50;99.90;;;-141.84;63.39;18942.06;5050446;28;20252;-57
2023/02/28 07:14:08;;;;;;;6.80;4.93;;;0.60;99.90;;;-141.84;63.10;18960.34;5050596;28;20232;-57
2023/02/28 07:16:37;;;;;;;6.40;4.73;;;0.60;99.90;;;-141.84;62.03;18950.19;5050817;28;20593;-57
2023/02/28 07:19:05;;;;;;;7.47;4.70;;;0.70;99.90;;;-141.84;62.26;18982.69;5050254;28;20239;-56
2023/02/28 07:21:34;;;;;;;7.53;4.80;;;0.90;99.90;;;-141.84;61.93;18996.91;5050489;28;20225;-56
2023/02/28 07:24:02;;;;;;;7.50;4.60;;;0.90;99.90;;;-141.84;61.28;18974.56;5050171;28;20236;-57
2023/02/28 07:26:30;;;;;;;6.43;4.30;;;1.00;99.90;;;-141.84;60.77;18962.38;5047026;28;20229;-60
2023/02/28 07:28:58;;;;;;;7.50;4.83;;;1.10;99.90;;;-141.84;60.23;19019.28;5050346;28;20209;-59
2023/02/28 07:31:28;;;;;;;8.53;4.60;;;1.20;99.90;;;-141.84;60.47;19000.97;5051238;28;20206;-58
2023/02/28 07:33:57;;;;;;;6.97;4.20;;;1.20;99.90;;;-141.84;60.30;18996.91;5049775;28;20232;-57
2023/02/28 07:36:25;;;;;;;6.93;4.77;;;1.30;99.90;;;-141.84;59.64;19017.25;5050282;28;20229;-57
2023/02/28 07:38:53;;;;;;;6.17;4.50;;;1.40;99.90;;;-141.84;58.97;18984.72;5050265;28;20232;-58
2023/02/28 07:41:24;;;;;;;6.20;4.60;;;1.40;99.90;;;-141.84;59.07;19033.50;5016456;28;20709;-58
2023/02/28 07:43:55;;;;;;;7.23;4.40;;;1.50;99.90;;;-141.84;58.66;19000.97;5050014;28;20267;-57
2023/02/28 07:46:23;;;;;;;6.20;4.60;;;1.60;99.90;;;-141.84;58.99;19017.25;5050172;28;20205;-59
2023/02/28 07:48:54;;;;;;;6.47;4.50;;;1.60;99.90;;;-141.84;58.30;19033.50;5049946;28;20225;-57
2023/02/28 07:51:23;;;;;;;6.67;4.77;;;1.60;99.90;;;-141.84;57.95;19031.47;5050421;28;20767;-55
2023/02/28 07:53:52;;;;;;;7.83;4.60;;;1.70;99.90;;;-141.84;57.90;19035.53;5031372;28;20221;-61
2023/02/28 07:56:20;;;;;;;6.73;4.47;;;1.70;99.90;;;-141.84;57.29;19035.53;5050086;28;20469;-58
2023/02/28 07:58:48;;;;;;;11.47;4.60;;;1.90;99.90;;;-141.84;56.13;19051.78;5065464;28;20461;-54
2023/02/28 08:01:17;;;;;;;6.43;4.20;;;2.10;99.90;;;-141.84;55.04;19098.50;5070790;28;20201;-55
2023/02/28 08:03:45;;;;;;;5.60;4.10;;;2.20;99.90;;;-141.84;54.56;19094.44;5070161;28;20220;-57
2023/02/28 08:06:21;;;;;;;7.57;4.13;;;2.40;99.90;;;-141.84;54.29;19151.34;5055438;28;20236;-58
2023/02/28 08:08:49;;;;;;;7.37;4.17;;;2.40;99.90;;;-141.84;54.40;19094.44;5050033;28;20221;-58
2023/02/28 08:11:18;;;;;;;7.37;4.37;;;2.50;99.90;;;-141.84;53.71;19100.53;5050044;28;20235;-55
2023/02/28 08:13:47;;;;;;;4.67;3.67;;;2.60;99.90;;;-141.84;53.34;19098.50;5050106;28;20222;-59
2023/02/28 08:16:20;;;;;;;5.17;3.90;;;2.80;99.90;;;-141.84;53.53;19086.31;5050533;28;20225;-58
2023/02/28 08:18:50;;;;;;;6.27;4.00;;;2.80;99.90;;;-141.84;53.13;19102.56;5049568;28;20670;-59
2023/02/28 08:21:21;;;;;;;5.63;4.10;;;2.80;99.90;;;-141.84;52.12;19141.19;5049864;28;20226;-56
2023/02/28 08:23:52;;;;;;;6.37;4.30;;;2.80;99.90;;;-141.84;51.16;19110.72;5049867;28;20604;-58
2023/02/28 08:26:21;;;;;;;9.57;4.77;;;2.90;99.90;;;-141.84;51.71;19135.09;5049844;28;20217;-56
2023/02/28 08:28:50;;;;;;;4.73;4.10;;;2.90;99.90;;;-141.84;50.88;19153.38;5050014;28;20224;-56
2023/02/28 08:31:19;;;;;;;5.57;4.40;;;3.00;99.90;;;-141.84;50.81;19163.53;5050183;28;20845;-58
2023/02/28 08:33:48;;;;;;;5.33;3.70;;;3.00;99.90;;;-141.84;50.62;19147.28;5049374;28;20229;-56
2023/02/28 08:36:16;;;;;;;6.53;4.30;;;3.10;99.90;;;-141.84;50.59;19153.38;5049700;28;20222;-54
2023/02/28 08:38:46;;;;;;;4.23;3.80;;;3.30;99.90;;;-141.84;49.67;19163.53;5049784;28;20275;-57
2023/02/28 08:41:14;;;;;;;5.27;3.70;;;3.40;99.90;;;-141.84;48.93;19179.78;5049599;28;20232;-57
2023/02/28 08:43:43;;;;;;;6.33;3.80;;;3.40;99.90;;;-141.84;48.31;19204.19;5050040;28;20199;-59
2023/02/28 08:46:14;;;;;;;4.67;3.77;;;3.50;99.90;;;-141.84;47.46;19183.84;5049207;28;20219;-55
2023/02/28 08:48:43;;;;;;;6.53;3.77;;;3.60;99.90;;;-141.84;48.01;19183.84;5049556;28;20227;-57
2023/02/28 08:51:15;;;;;;;5.90;3.77;;;3.60;99.90;;;-141.84;47.08;19194.03;5049522;28;20308;-57
2023/02/28 08:53:46;;;;;;;5.27;3.60;;;3.60;99.90;;;-141.84;47.33;19222.47;5049548;28;20314;-56
2023/02/28 08:56:17;;;;;;;4.10;3.40;;;3.60;99.90;;;-141.84;47.15;19192.00;5049638;28;20227;-56
2023/02/28 08:58:47;;;;;;;4.80;3.60;;;3.40;99.90;;;-141.84;46.80;19173.69;5035263;28;20232;-57
2023/02/28 09:01:18;;;;;;;6.70;3.57;;;3.40;99.90;;;-141.84;47.33;19187.91;5073885;28;20212;-57
2023/02/28 09:03:48;;;;;;;5.67;3.90;;;3.40;99.90;;;-141.84;48.07;19189.97;5073226;28;20237;-56
2023/02/28 09:06:20;;;;;;;4.20;3.13;;;3.30;99.90;;;-141.84;47.64;19189.97;5073015;28;20220;-58
2023/02/28 09:08:50;;;;;;;7.27;4.00;;;3.40;99.90;;;-141.84;46.47;19187.91;5072967;28;20295;-55
2023/02/28 09:11:19;;;;;;;4.17;3.30;;;3.50;99.90;;;-141.84;45.93;19228.56;5072760;28;20220;-59
2023/02/28 09:13:47;;;;;;;4.73;3.53;;;3.50;99.90;;;-141.84;46.26;19228.56;5073025;28;20216;-58
2023/02/28 09:16:17;;;;;;;3.90;3.03;;;3.60;99.90;;;-141.84;46.43;19210.28;5073235;28;20205;-58
2023/02/28 09:18:46;;;;;;;6.57;3.90;;;3.60;99.90;;;-141.84;46.76;19216.38;5072668;28;20315;-56
2023/02/28 09:21:18;;;;;;;5.17;3.50;;;3.60;99.90;;;-141.84;47.07;19240.75;5027393;28;20261;-58
2023/02/28 09:23:50;;;;;;;5.10;3.60;;;3.80;99.90;;;-141.84;45.45;19244.81;5064467;28;20353;-56
2023/02/28 09:26:21;;;;;;;4.27;3.60;;;3.90;99.90;;;-141.84;45.38;19218.41;5052495;28;20235;-58
2023/02/28 09:28:50;;;;;;;4.20;3.37;;;3.80;99.90;;;-141.84;44.88;19218.41;5052619;28;20251;-56
2023/02/28 09:31:21;;;;;;;6.33;3.83;;;3.90;99.90;;;-141.84;44.89;19263.09;5052732;28;20551;-56
2023/02/28 09:33:50;;;;;;;4.93;3.40;;;4.10;99.90;;;-141.84;45.31;19287.50;5052289;28;20226;-56
2023/02/28 09:36:20;;;;;;;5.37;4.00;;;4.30;99.90;;;-141.84;45.30;19259.03;5052353;28;20229;-55
2023/02/28 09:38:52;;;;;;;5.50;3.60;;;4.20;99.90;;;-141.84;44.86;19285.47;5052359;28;20314;-56
2023/02/28 09:41:25;;;;;;;7.33;3.77;;;4.20;99.90;;;-141.84;45.11;19277.34;5052101;28;20310;-57
2023/02/28 09:43:57;;;;;;;5.30;3.50;;;4.20;99.90;;;-141.84;44.88;19252.94;5052382;28;20196;-58
2023/02/28 09:46:34;;;;;;;4.50;3.47;;;4.10;99.90;;;-141.84;45.12;19250.91;5054864;28;20615;-55
2023/02/28 09:49:08;;;;;;;5.77;3.80;;;4.00;99.90;;;-141.84;45.10;19240.75;5053162;28;20231;-58
2023/02/28 09:51:50;;;;;;;5.53;3.37;;;3.90;99.90;;;-141.84;44.86;19236.69;5053177;28;20256;-59
2023/02/28 09:54:23;;;;;;;4.80;3.77;;;3.80;99.90;;;-141.84;44.47;19196.06;5052958;28;20230;-56
2023/02/28 09:56:57;;;;;;;5.37;4.33;;;3.70;99.90;;;-141.84;44.85;19224.50;5052290;28;20281;-57
2023/02/28 09:59:45;;;;;;;5.83;3.60;;;3.70;99.90;;;-141.84;44.91;19244.81;5032741;28;20249;-55
2023/02/28 10:02:41;;;;;;;4.40;3.20;;;3.70;99.90;;;-141.84;44.23;19228.56;5031899;28;20306;-57
2023/02/28 10:05:14;;;;;;;4.07;3.17;;;3.90;99.90;;;-141.84;44.47;19275.31;5031825;28;20224;-60
2023/02/28 10:08:04;;;;;;;6.10;3.83;;;4.00;99.90;;;-141.84;44.05;19252.94;5031839;28;20192;-58
2023/02/28 10:10:41;;;;;;;4.30;3.50;;;4.20;99.90;;;-141.84;42.75;19313.91;5052103;28;20690;-57
2023/02/28 10:13:25;;;;;;;5.50;3.90;;;4.40;99.90;;;-141.84;42.74;19313.91;5051936;28;20226;-60
2023/02/28 10:15:59;;;;;;;6.23;4.13;;;4.70;99.90;;;-141.84;42.56;19277.34;5051740;28;20245;-58
2023/02/28 10:18:36;;;;;;;4.60;3.93;;;4.60;99.90;;;-141.84;42.90;19295.63;5065630;28;20233;-59
2023/02/28 10:21:05;;;;;;;4.67;3.67;;;4.60;99.90;;;-141.84;43.29;19334.22;5071627;28;20230;-58
2023/02/28 10:23:38;;;;;;;5.10;3.67;;;4.60;99.90;;;-141.84;42.49;19324.06;5069300;28;20247;-54
2023/02/28 10:26:15;;;;;;;4.73;3.80;;;4.80;99.90;;;-141.84;42.35;19340.31;5071359;28;20239;-58
2023/02/28 10:28:45;;;;;;;6.00;3.60;;;4.90;99.90;;;-141.84;41.89;19328.13;5072069;28;20227;-58
2023/02/28 10:31:19;;;;;;;4.37;3.63;;;5.00;99.90;;;-141.84;41.83;19360.66;5071628;28;20223;-55